createdAt,value
2019-03-27T00:00:41.957Z,76.11
2019-03-27T00:02:48.789Z,75.96
2019-03-27T00:04:54.468Z,76.15
2019-03-27T00:07:00.126Z,76.30
2019-03-27T00:09:06.371Z,76.49
2019-03-27T00:11:12.160Z,76.41
2019-03-27T00:13:17.812Z,76.43
2019-03-27T00:15:23.468Z,76.52
2019-03-27T00:17:29.157Z,76.62
2019-03-27T00:19:34.879Z,76.73
2019-03-27T00:21:41.142Z,76.86
2019-03-27T00:23:46.824Z,77.00
2019-03-27T00:25:52.472Z,77.12
2019-03-27T00:27:58.130Z,77.13
2019-03-27T00:30:05.255Z,77.11
2019-03-27T00:32:10.911Z,77.20
2019-03-27T00:34:16.561Z,77.32
2019-03-27T00:36:22.243Z,77.60
2019-03-27T00:38:27.897Z,77.67
2019-03-27T00:40:33.548Z,77.99
2019-03-27T00:42:39.219Z,77.96
2019-03-27T00:44:44.885Z,77.96
2019-03-27T00:46:50.477Z,78.13
2019-03-27T00:48:56.151Z,78.20
2019-03-27T00:51:01.801Z,78.24
2019-03-27T00:53:07.456Z,78.43
2019-03-27T00:55:14.035Z,78.42
2019-03-27T00:57:19.758Z,78.50
2019-03-27T00:59:25.416Z,78.59
2019-03-27T01:01:31.093Z,78.90
2019-03-27T01:03:36.753Z,78.73
2019-03-27T01:05:42.400Z,78.93
2019-03-27T01:07:48.075Z,78.96
2019-03-27T01:09:53.660Z,79.20
2019-03-27T01:11:59.647Z,79.25
2019-03-27T01:14:05.323Z,79.33
2019-03-27T01:16:10.992Z,79.29
2019-03-27T01:18:16.657Z,79.54
2019-03-27T01:20:22.335Z,79.63
2019-03-27T01:22:27.988Z,79.81
2019-03-27T01:24:33.652Z,79.95
2019-03-27T01:26:39.405Z,79.97
2019-03-27T01:28:45.064Z,79.74
2019-03-27T01:30:50.717Z,79.85
2019-03-27T01:32:56.404Z,80.10
2019-03-27T01:35:02.061Z,80.23
2019-03-27T01:37:08.810Z,80.33
2019-03-27T01:39:14.491Z,80.47
2019-03-27T01:41:20.234Z,80.23
2019-03-27T01:43:25.892Z,80.19
2019-03-27T01:45:31.647Z,80.38
2019-03-27T01:47:37.311Z,80.34
2019-03-27T01:49:42.956Z,80.52
2019-03-27T01:51:48.641Z,80.53
2019-03-27T01:53:54.302Z,80.55
2019-03-27T01:55:59.957Z,80.51
2019-03-27T01:58:05.645Z,80.62
2019-03-27T02:00:11.697Z,80.60
2019-03-27T02:02:17.419Z,80.77
2019-03-27T02:04:23.101Z,80.90
2019-03-27T02:06:28.820Z,80.82
2019-03-27T02:08:34.502Z,80.86
2019-03-27T02:10:40.172Z,80.95
2019-03-27T02:12:45.826Z,81.07
2019-03-27T02:14:52.585Z,81.22
2019-03-27T02:16:58.272Z,81.30
2019-03-27T02:19:03.922Z,81.42
2019-03-27T02:21:09.875Z,81.29
2019-03-27T02:23:15.682Z,81.49
2019-03-27T02:25:21.404Z,81.73
2019-03-27T02:27:27.056Z,81.61
2019-03-27T02:29:32.727Z,81.61
2019-03-27T02:31:38.380Z,81.68
2019-03-27T02:33:44.061Z,81.58
2019-03-27T02:35:49.736Z,81.82
2019-03-27T02:37:55.392Z,81.96
2019-03-27T02:40:01.143Z,81.95
2019-03-27T02:42:07.239Z,81.96
2019-03-27T02:44:12.886Z,82.22
2019-03-27T02:46:24.977Z,82.55
2019-03-27T02:48:25.916Z,82.60
2019-03-27T02:50:31.580Z,82.63
2019-03-27T02:52:37.227Z,82.61
2019-03-27T02:54:42.901Z,82.54
2019-03-27T02:56:48.553Z,82.79
2019-03-27T02:58:54.206Z,82.95
2019-03-27T03:01:00.594Z,82.97
2019-03-27T03:03:07.891Z,82.91
2019-03-27T03:05:13.723Z,82.79
2019-03-27T03:07:19.396Z,82.87
2019-03-27T03:09:25.082Z,83.17
2019-03-27T03:11:30.735Z,83.23
2019-03-27T03:13:36.513Z,83.26
2019-03-27T03:15:42.240Z,83.22
2019-03-27T03:17:48.001Z,83.32
2019-03-27T03:19:53.666Z,83.49
2019-03-27T03:21:59.321Z,83.54
2019-03-27T03:24:04.965Z,83.78
2019-03-27T03:26:10.651Z,83.70
2019-03-27T03:28:16.297Z,83.69
2019-03-27T03:30:21.960Z,83.67
2019-03-27T03:32:27.647Z,83.63
2019-03-27T03:34:34.583Z,83.75
2019-03-27T03:36:40.385Z,83.74
2019-03-27T03:38:46.065Z,83.73
2019-03-27T03:40:51.707Z,83.79
2019-03-27T03:42:57.363Z,83.87
2019-03-27T03:45:03.154Z,83.83
2019-03-27T03:47:08.812Z,83.73
2019-03-27T03:49:14.460Z,83.50
2019-03-27T03:51:20.244Z,83.31
2019-03-27T03:53:26.309Z,83.34
2019-03-27T03:55:33.854Z,83.34
2019-03-27T03:57:39.652Z,83.24
2019-03-27T03:59:46.107Z,83.13
2019-03-27T04:01:56.090Z,83.07
2019-03-27T04:04:03.475Z,83.04
2019-03-27T04:06:09.125Z,82.98
2019-03-27T04:08:14.786Z,82.94
2019-03-27T04:10:20.483Z,82.86
2019-03-27T04:12:26.144Z,83.01
2019-03-27T04:14:31.796Z,83.15
2019-03-27T04:16:37.469Z,83.16
2019-03-27T04:18:43.125Z,83.20
2019-03-27T04:20:48.831Z,83.19
2019-03-27T04:22:54.584Z,83.33
2019-03-27T04:25:00.548Z,83.32
2019-03-27T04:27:06.282Z,83.36
2019-03-27T04:29:11.942Z,83.42
2019-03-27T04:31:17.600Z,83.45
2019-03-27T04:33:23.195Z,83.40
2019-03-27T04:35:28.873Z,83.40
2019-03-27T04:37:34.572Z,83.41
2019-03-27T04:39:40.211Z,83.41
2019-03-27T04:41:45.909Z,83.41
2019-03-27T04:43:51.562Z,83.40
2019-03-27T04:45:57.219Z,83.27
2019-03-27T04:48:02.961Z,83.06
2019-03-27T04:50:08.684Z,83.01
2019-03-27T04:52:14.338Z,82.97
2019-03-27T04:54:20.010Z,82.74
2019-03-27T04:56:25.667Z,82.46
2019-03-27T04:58:31.314Z,82.27
2019-03-27T05:00:37.221Z,81.98
2019-03-27T05:02:42.881Z,81.17
2019-03-27T05:04:48.843Z,80.39
2019-03-27T05:06:54.556Z,79.80
2019-03-27T05:09:00.235Z,78.77
2019-03-27T05:11:05.952Z,78.23
2019-03-27T05:13:11.631Z,77.19
2019-03-27T05:15:17.421Z,76.34
2019-03-27T05:17:23.071Z,76.23
2019-03-27T05:19:28.812Z,74.57
2019-03-27T05:21:34.460Z,74.37
2019-03-27T05:23:40.107Z,72.82
2019-03-27T05:25:46.881Z,66.59
2019-03-27T05:27:52.551Z,60.76
2019-03-27T05:29:58.179Z,54.24
2019-03-27T05:32:03.849Z,48.69
2019-03-27T05:34:10.695Z,46.77
2019-03-27T05:36:16.440Z,44.95
2019-03-27T05:38:22.111Z,43.03
2019-03-27T05:40:27.780Z,42.75
2019-03-27T05:42:33.433Z,41.49
2019-03-27T05:44:39.120Z,41.14
2019-03-27T05:46:44.847Z,40.60
2019-03-27T05:48:50.500Z,41.53
2019-03-27T05:50:56.176Z,43.92
2019-03-27T05:53:01.827Z,47.97
2019-03-27T05:55:07.773Z,44.82
2019-03-27T05:57:13.457Z,45.43
2019-03-27T05:59:19.175Z,47.20
2019-03-27T06:01:24.892Z,45.81
2019-03-27T06:03:30.569Z,47.74
2019-03-27T06:05:37.213Z,45.98
2019-03-27T06:07:42.804Z,45.59
2019-03-27T06:09:48.480Z,44.89
2019-03-27T06:11:54.124Z,44.45
2019-03-27T06:13:59.778Z,47.19
2019-03-27T06:16:05.453Z,50.30
2019-03-27T06:18:13.189Z,53.58
2019-03-27T06:20:18.447Z,54.52
2019-03-27T06:22:24.123Z,56.54
2019-03-27T06:24:29.786Z,55.71
2019-03-27T06:26:35.432Z,56.58
2019-03-27T06:28:41.107Z,56.83
2019-03-27T06:30:47.751Z,57.41
2019-03-27T06:32:53.383Z,58.94
2019-03-27T06:34:59.065Z,60.63
2019-03-27T06:37:04.714Z,60.59
2019-03-27T06:39:10.379Z,61.10
2019-03-27T06:41:17.141Z,58.77
2019-03-27T06:43:22.810Z,59.06
2019-03-27T06:45:28.448Z,59.96
2019-03-27T06:47:34.432Z,60.78
2019-03-27T06:49:40.082Z,54.41
2019-03-27T06:51:45.727Z,51.79
2019-03-27T06:53:51.395Z,49.30
2019-03-27T06:55:57.035Z,48.49
2019-03-27T06:58:02.751Z,48.74
2019-03-27T07:00:10.277Z,47.29
2019-03-27T07:02:16.081Z,45.52
2019-03-27T07:04:21.670Z,45.32
2019-03-27T07:06:27.353Z,44.38
2019-03-27T07:08:33.013Z,38.46
2019-03-27T07:10:38.670Z,34.58
2019-03-27T07:12:44.355Z,30.27
2019-03-27T07:14:50.013Z,26.62
2019-03-27T07:16:55.666Z,24.49
2019-03-27T07:19:01.349Z,22.04
2019-03-27T07:21:07.010Z,22.05
2019-03-27T07:23:12.784Z,21.08
2019-03-27T07:25:18.393Z,21.89
2019-03-27T07:27:24.046Z,25.85
2019-03-27T07:29:29.698Z,31.21
2019-03-27T07:31:35.380Z,33.97
2019-03-27T07:33:41.037Z,38.51
2019-03-27T07:35:46.684Z,41.42
2019-03-27T07:37:53.351Z,43.47
2019-03-27T07:39:58.997Z,47.02
2019-03-27T07:42:04.744Z,49.35
2019-03-27T07:44:10.411Z,50.53
2019-03-27T07:46:16.057Z,50.59
2019-03-27T07:48:21.700Z,49.33
2019-03-27T07:50:27.373Z,47.99
2019-03-27T07:52:33.019Z,48.06
2019-03-27T07:54:38.667Z,46.84
2019-03-27T07:56:44.335Z,46.33
2019-03-27T07:58:49.988Z,47.99
2019-03-27T08:00:55.627Z,48.29
2019-03-27T08:03:01.296Z,48.43
2019-03-27T08:05:07.240Z,50.00
2019-03-27T08:07:25.927Z,50.34
2019-03-27T08:09:23.004Z,49.60
2019-03-27T08:11:27.836Z,51.45
2019-03-27T08:13:33.571Z,50.27
2019-03-27T08:15:40.832Z,50.22
2019-03-27T08:17:46.774Z,50.98
2019-03-27T08:19:52.420Z,51.04
2019-03-27T08:21:58.156Z,51.35
2019-03-27T08:24:03.855Z,49.45
2019-03-27T08:26:10.459Z,50.92
2019-03-27T08:28:16.131Z,50.79
2019-03-27T08:30:22.379Z,50.21
2019-03-27T08:32:28.072Z,52.45
2019-03-27T08:34:33.744Z,50.67
2019-03-27T08:36:39.405Z,47.98
2019-03-27T08:38:45.043Z,49.56
2019-03-27T08:40:50.758Z,49.67
2019-03-27T08:42:56.453Z,49.38
2019-03-27T08:45:02.107Z,50.02
2019-03-27T08:47:07.786Z,49.10
2019-03-27T08:49:21.935Z,48.40
2019-03-27T08:51:20.776Z,49.03
2019-03-27T08:53:26.461Z,47.40
2019-03-27T08:55:32.309Z,46.45
2019-03-27T08:57:37.989Z,45.70
2019-03-27T08:59:43.662Z,44.96
2019-03-27T09:01:49.306Z,45.60
2019-03-27T09:03:54.954Z,47.80
2019-03-27T09:06:00.562Z,48.66
2019-03-27T09:08:06.290Z,47.58
2019-03-27T09:10:12.868Z,46.43
2019-03-27T09:12:18.548Z,44.73
2019-03-27T09:14:24.277Z,44.59
2019-03-27T09:16:29.955Z,45.10
2019-03-27T09:18:35.623Z,44.71
2019-03-27T09:20:41.276Z,43.68
2019-03-27T09:22:46.886Z,43.10
2019-03-27T09:24:52.590Z,43.59
2019-03-27T09:26:58.266Z,43.88
2019-03-27T09:29:03.941Z,42.44
2019-03-27T09:31:09.644Z,43.58
2019-03-27T09:33:15.386Z,44.39
2019-03-27T09:35:21.187Z,44.57
2019-03-27T09:37:26.984Z,44.22
2019-03-27T09:39:32.665Z,43.52
2019-03-27T09:41:38.333Z,43.79
2019-03-27T09:43:44.044Z,44.33
2019-03-27T09:45:49.706Z,44.69
2019-03-27T09:47:55.524Z,44.32
2019-03-27T09:50:01.229Z,44.28
2019-03-27T09:52:07.008Z,43.62
2019-03-27T09:54:12.687Z,43.63
2019-03-27T09:56:19.663Z,43.26
2019-03-27T09:58:25.480Z,43.02
2019-03-27T10:00:46.091Z,42.90
2019-03-27T10:02:51.896Z,43.02
2019-03-27T10:04:57.564Z,42.62
2019-03-27T10:07:03.225Z,42.92
2019-03-27T10:09:09.135Z,42.72
2019-03-27T10:11:14.812Z,42.44
2019-03-27T10:13:20.465Z,41.35
2019-03-27T10:15:26.244Z,41.05
2019-03-27T10:17:31.914Z,41.36
2019-03-27T10:19:37.583Z,40.79
2019-03-27T10:21:43.287Z,41.10
2019-03-27T10:23:48.963Z,39.71
2019-03-27T10:25:54.629Z,39.99
2019-03-27T10:28:00.337Z,38.89
2019-03-27T10:30:10.221Z,37.79
2019-03-27T10:32:16.185Z,38.59
2019-03-27T10:34:21.883Z,36.97
2019-03-27T10:36:27.553Z,38.62
2019-03-27T10:38:33.231Z,38.08
2019-03-27T10:40:39.057Z,37.43
2019-03-27T10:42:44.727Z,36.54
2019-03-27T10:44:50.402Z,37.59
2019-03-27T10:46:56.140Z,38.25
2019-03-27T10:49:01.810Z,38.04
2019-03-27T10:51:07.591Z,37.24
2019-03-27T10:53:13.389Z,36.74
2019-03-27T10:55:19.066Z,36.53
2019-03-27T10:57:24.738Z,35.70
2019-03-27T10:59:30.446Z,36.55
2019-03-27T11:01:36.117Z,35.83
2019-03-27T11:03:41.807Z,35.81
2019-03-27T11:05:47.497Z,35.69
2019-03-27T11:07:53.176Z,36.38
2019-03-27T11:09:58.951Z,36.59
2019-03-27T11:12:04.655Z,37.00
2019-03-27T11:14:10.329Z,37.13
2019-03-27T11:16:16.193Z,37.53
2019-03-27T11:18:21.969Z,37.73
2019-03-27T11:20:31.145Z,35.58
2019-03-27T11:22:36.728Z,35.13
2019-03-27T11:24:42.509Z,35.83
2019-03-27T11:26:48.169Z,35.64
2019-03-27T11:28:53.838Z,35.17
2019-03-27T11:30:59.541Z,34.06
2019-03-27T11:33:06.020Z,33.48
2019-03-27T11:35:12.993Z,33.27
2019-03-27T11:37:19.802Z,32.87
2019-03-27T11:39:25.468Z,32.58
2019-03-27T11:41:31.142Z,33.37
2019-03-27T11:43:36.846Z,33.84
2019-03-27T11:45:42.524Z,34.08
2019-03-27T11:47:48.198Z,33.49
2019-03-27T11:49:54.720Z,32.71
2019-03-27T11:52:00.588Z,32.66
2019-03-27T11:54:06.275Z,32.58
2019-03-27T11:56:12.178Z,31.99
2019-03-27T11:58:17.852Z,32.66
2019-03-27T12:00:25.050Z,32.30
2019-03-27T12:02:30.858Z,32.81
2019-03-27T12:04:36.543Z,32.48
2019-03-27T12:06:42.216Z,32.90
2019-03-27T12:08:50.651Z,32.37
2019-03-27T12:10:55.300Z,32.30
2019-03-27T12:13:00.971Z,31.33
2019-03-27T12:15:07.875Z,31.13
2019-03-27T12:17:13.625Z,31.08
2019-03-27T12:19:19.290Z,31.04
2019-03-27T12:21:25.002Z,31.86
2019-03-27T12:23:30.662Z,32.38
2019-03-27T12:25:36.514Z,32.66
2019-03-27T12:27:42.212Z,31.98
2019-03-27T12:29:47.877Z,31.63
2019-03-27T12:31:53.554Z,31.55
2019-03-27T12:33:59.251Z,31.08
2019-03-27T12:36:04.922Z,31.83
2019-03-27T12:38:10.598Z,31.19
2019-03-27T12:40:16.298Z,30.51
2019-03-27T12:42:21.967Z,30.76
2019-03-27T12:44:27.640Z,30.87
2019-03-27T12:46:33.348Z,31.47
2019-03-27T12:48:39.010Z,30.66
2019-03-27T12:50:44.753Z,30.80
2019-03-27T12:52:50.555Z,30.42
2019-03-27T12:54:56.228Z,29.79
2019-03-27T12:57:03.073Z,28.21
2019-03-27T12:59:08.775Z,27.99
2019-03-27T13:01:14.446Z,28.33
2019-03-27T13:03:20.128Z,28.26
2019-03-27T13:05:25.849Z,27.75
2019-03-27T13:07:31.534Z,28.93
2019-03-27T13:09:37.214Z,28.58
2019-03-27T13:11:42.917Z,28.79
2019-03-27T13:13:48.588Z,28.49
2019-03-27T13:15:54.254Z,28.57
2019-03-27T13:17:59.961Z,29.31
2019-03-27T13:20:07.233Z,29.71
2019-03-27T13:22:12.911Z,29.66
2019-03-27T13:24:18.718Z,30.16
2019-03-27T13:26:24.456Z,33.36
2019-03-27T13:28:30.130Z,30.38
2019-03-27T13:30:35.843Z,31.42
2019-03-27T13:32:41.516Z,30.82
2019-03-27T13:34:47.188Z,29.57
2019-03-27T13:36:53.885Z,29.88
2019-03-27T13:39:00.577Z,32.15
2019-03-27T13:41:07.778Z,30.91
2019-03-27T13:43:13.489Z,32.19
2019-03-27T13:45:19.563Z,32.55
2019-03-27T13:47:25.240Z,32.05
2019-03-27T13:49:30.940Z,32.79
2019-03-27T13:51:40.875Z,32.95
2019-03-27T13:53:45.876Z,32.90
2019-03-27T13:55:51.669Z,32.66
2019-03-27T13:57:57.617Z,33.23
2019-03-27T14:00:04.587Z,33.31
2019-03-27T14:02:10.394Z,33.76
2019-03-27T14:04:16.075Z,33.61
2019-03-27T14:06:21.749Z,33.86
2019-03-27T14:08:27.522Z,34.10
2019-03-27T14:10:33.200Z,33.68
2019-03-27T14:12:38.946Z,33.49
2019-03-27T14:14:50.563Z,34.17
2019-03-27T14:16:53.021Z,33.63
2019-03-27T14:18:58.781Z,33.47
2019-03-27T14:21:04.679Z,33.47
2019-03-27T14:23:10.354Z,33.34
2019-03-27T14:25:16.525Z,33.48
2019-03-27T14:27:22.315Z,33.46
2019-03-27T14:29:28.001Z,33.22
2019-03-27T14:31:33.742Z,33.49
2019-03-27T14:33:39.452Z,34.05
2019-03-27T14:35:45.122Z,34.21
2019-03-27T14:37:51.796Z,34.21
2019-03-27T14:39:57.590Z,33.72
2019-03-27T14:42:03.297Z,33.76
2019-03-27T14:44:09.947Z,33.89
2019-03-27T14:46:15.655Z,33.88
2019-03-27T14:48:21.335Z,33.95
2019-03-27T14:50:27.076Z,33.67
2019-03-27T14:52:32.778Z,33.83
2019-03-27T14:54:38.456Z,34.11
2019-03-27T14:56:44.132Z,34.05
2019-03-27T14:58:49.934Z,33.68
2019-03-27T15:00:55.629Z,34.07
2019-03-27T15:03:01.298Z,34.08
2019-03-27T15:05:08.073Z,34.03
2019-03-27T15:07:13.931Z,33.75
2019-03-27T15:09:19.608Z,33.88
2019-03-27T15:11:25.343Z,33.89
2019-03-27T15:13:31.010Z,34.29
2019-03-27T15:15:36.686Z,34.53
2019-03-27T15:17:42.391Z,34.47
2019-03-27T15:19:48.058Z,34.68
2019-03-27T15:21:53.800Z,34.52
2019-03-27T15:23:59.527Z,34.25
2019-03-27T15:26:05.374Z,34.41
2019-03-27T15:28:11.135Z,34.85
2019-03-27T15:30:17.139Z,34.72
2019-03-27T15:32:22.819Z,35.01
2019-03-27T15:34:28.491Z,34.83
2019-03-27T15:36:34.271Z,34.72
2019-03-27T15:38:39.949Z,34.60
2019-03-27T15:40:47.401Z,34.84
2019-03-27T15:42:55.350Z,34.89
2019-03-27T15:45:01.081Z,34.79
2019-03-27T15:47:06.851Z,34.57
2019-03-27T15:49:12.553Z,34.50
2019-03-27T15:51:18.229Z,34.48
2019-03-27T15:53:24.124Z,34.58
2019-03-27T15:55:29.898Z,34.95
2019-03-27T15:57:35.566Z,35.39
2019-03-27T15:59:42.311Z,35.43
2019-03-27T16:01:48.094Z,35.46
2019-03-27T16:03:53.762Z,35.77
2019-03-27T16:05:59.493Z,36.16
2019-03-27T16:08:05.393Z,36.28
2019-03-27T16:10:11.358Z,36.49
2019-03-27T16:12:17.446Z,35.78
2019-03-27T16:14:23.218Z,35.42
2019-03-27T16:16:28.895Z,35.20
2019-03-27T16:18:34.593Z,35.85
2019-03-27T16:20:40.348Z,36.09
2019-03-27T16:22:50.976Z,36.11
2019-03-27T16:24:53.395Z,36.42
2019-03-27T16:27:04.552Z,37.13
2019-03-27T16:29:06.986Z,37.46
2019-03-27T16:31:12.653Z,38.35
2019-03-27T16:33:18.361Z,38.93
2019-03-27T16:35:24.279Z,39.53
2019-03-27T16:37:29.960Z,39.54
2019-03-27T16:39:35.743Z,39.93
2019-03-27T16:41:41.413Z,40.50
2019-03-27T16:43:47.099Z,40.53
2019-03-27T16:45:53.119Z,40.97
2019-03-27T16:47:58.795Z,41.36
2019-03-27T16:50:06.707Z,41.35
2019-03-27T16:52:13.611Z,41.70
2019-03-27T16:54:19.356Z,41.88
2019-03-27T16:56:25.027Z,42.14
2019-03-27T16:58:30.800Z,42.09
2019-03-27T17:00:36.471Z,42.33
2019-03-27T17:02:42.223Z,42.64
2019-03-27T17:04:48.002Z,42.79
2019-03-27T17:06:53.678Z,42.73
2019-03-27T17:08:59.289Z,43.05
2019-03-27T17:11:05.096Z,43.00
2019-03-27T17:13:10.771Z,43.28
2019-03-27T17:15:16.442Z,43.51
2019-03-27T17:17:22.153Z,43.43
2019-03-27T17:19:27.857Z,43.99
2019-03-27T17:21:33.614Z,43.97
2019-03-27T17:23:39.308Z,44.28
2019-03-27T17:25:45.057Z,44.49
2019-03-27T17:27:50.745Z,44.74
2019-03-27T17:29:56.528Z,45.04
2019-03-27T17:32:02.207Z,44.85
2019-03-27T17:34:07.958Z,44.93
2019-03-27T17:36:13.680Z,45.02
2019-03-27T17:38:19.432Z,45.34
2019-03-27T17:40:25.182Z,45.53
2019-03-27T17:42:31.106Z,45.43
2019-03-27T17:44:36.789Z,45.40
2019-03-27T17:46:42.531Z,45.64
2019-03-27T17:48:48.245Z,45.60
2019-03-27T17:50:54.077Z,45.64
2019-03-27T17:52:59.830Z,45.84
2019-03-27T17:55:08.250Z,45.82
2019-03-27T17:57:13.922Z,46.00
2019-03-27T17:59:19.956Z,46.07
2019-03-27T18:01:28.299Z,46.11
2019-03-27T18:03:34.053Z,46.22
2019-03-27T18:05:39.748Z,46.31
2019-03-27T18:07:45.470Z,46.60
2019-03-27T18:09:51.153Z,46.54
2019-03-27T18:11:59.117Z,46.65
2019-03-27T18:14:05.277Z,46.74
2019-03-27T18:16:11.112Z,46.89
2019-03-27T18:18:16.744Z,47.03
2019-03-27T18:20:22.409Z,47.15
2019-03-27T18:22:28.083Z,47.22
2019-03-27T18:24:33.747Z,47.49
2019-03-27T18:26:42.655Z,47.82
2019-03-27T18:28:48.287Z,47.48
2019-03-27T18:30:54.000Z,47.70
2019-03-27T18:32:59.673Z,47.66
2019-03-27T18:35:06.805Z,47.85
2019-03-27T18:37:12.449Z,48.12
2019-03-27T18:39:18.117Z,48.39
2019-03-27T18:41:23.840Z,48.54
2019-03-27T18:43:29.564Z,48.58
2019-03-27T18:45:35.249Z,48.81
2019-03-27T18:47:40.964Z,48.93
2019-03-27T18:49:46.692Z,49.13
2019-03-27T18:51:52.440Z,49.19
2019-03-27T18:53:59.857Z,49.37
2019-03-27T18:56:08.410Z,49.47
2019-03-27T18:58:14.077Z,49.56
2019-03-27T19:00:19.781Z,49.81
2019-03-27T19:02:27.057Z,50.13
2019-03-27T19:04:32.730Z,50.16
2019-03-27T19:06:38.383Z,50.14
2019-03-27T19:08:44.112Z,50.15
2019-03-27T19:10:49.786Z,50.24
2019-03-27T19:12:55.507Z,50.33
2019-03-27T19:15:01.158Z,50.52
2019-03-27T19:17:06.911Z,50.64
2019-03-27T19:19:12.556Z,50.85
2019-03-27T19:21:20.600Z,50.54
2019-03-27T19:23:26.279Z,50.65
2019-03-27T19:25:33.128Z,50.77
2019-03-27T19:27:38.943Z,50.59
2019-03-27T19:29:46.067Z,50.61
2019-03-27T19:31:53.233Z,50.62
2019-03-27T19:34:00.409Z,50.66
2019-03-27T19:36:06.386Z,50.82
2019-03-27T19:38:12.101Z,50.97
2019-03-27T19:40:18.850Z,51.49
2019-03-27T19:42:24.538Z,50.99
2019-03-27T19:44:30.257Z,50.98
2019-03-27T19:46:37.512Z,51.04
2019-03-27T19:48:43.305Z,51.48
2019-03-27T19:50:49.884Z,51.18
2019-03-27T19:52:57.235Z,51.13
2019-03-27T19:55:03.770Z,51.45
2019-03-27T19:57:09.725Z,51.59
2019-03-27T19:59:15.435Z,51.36
2019-03-27T20:01:21.110Z,51.93
2019-03-27T20:03:26.842Z,51.53
2019-03-27T20:05:32.483Z,51.79
2019-03-27T20:07:38.158Z,52.03
2019-03-27T20:09:43.822Z,51.83
2019-03-27T20:11:49.664Z,52.00
2019-03-27T20:13:55.898Z,52.21
2019-03-27T20:16:01.543Z,52.19
2019-03-27T20:18:07.183Z,52.26
2019-03-27T20:20:14.075Z,52.55
2019-03-27T20:22:19.727Z,52.23
2019-03-27T20:24:25.485Z,51.92
2019-03-27T20:26:31.143Z,52.36
2019-03-27T20:28:36.785Z,52.17
2019-03-27T20:30:42.446Z,52.08
2019-03-27T20:32:48.107Z,52.46
2019-03-27T20:34:53.749Z,52.32
2019-03-27T20:37:00.600Z,52.38
2019-03-27T20:39:08.547Z,51.98
2019-03-27T20:41:14.705Z,52.16
2019-03-27T20:43:20.362Z,51.76
2019-03-27T20:45:27.795Z,51.93
2019-03-27T20:47:33.444Z,51.83
2019-03-27T20:49:39.084Z,51.95
2019-03-27T20:51:44.755Z,51.82
2019-03-27T20:53:50.414Z,51.59
2019-03-27T20:55:56.061Z,51.69
2019-03-27T20:58:03.378Z,51.70
2019-03-27T21:00:09.803Z,51.69
2019-03-27T21:02:15.650Z,51.72
2019-03-27T21:04:22.431Z,51.75
2019-03-27T21:06:28.086Z,51.81
2019-03-27T21:08:34.732Z,51.94
2019-03-27T21:10:40.434Z,52.08
2019-03-27T21:12:46.083Z,52.16
2019-03-27T21:14:51.803Z,52.31
2019-03-27T21:16:57.488Z,52.44
2019-03-27T21:19:03.146Z,52.37
2019-03-27T21:21:08.788Z,52.71
2019-03-27T21:23:16.114Z,52.87
2019-03-27T21:25:21.752Z,53.13
2019-03-27T21:27:27.429Z,53.41
2019-03-27T21:29:34.226Z,53.90
2019-03-27T21:31:39.873Z,54.09
2019-03-27T21:33:45.524Z,54.65
2019-03-27T21:35:51.213Z,54.69
2019-03-27T21:37:58.069Z,54.80
2019-03-27T21:40:05.728Z,55.44
2019-03-27T21:42:11.449Z,55.64
2019-03-27T21:44:17.094Z,57.34
2019-03-27T21:46:22.741Z,57.95
2019-03-27T21:48:29.517Z,59.70
2019-03-27T21:50:35.160Z,61.09
2019-03-27T21:52:40.811Z,61.51
2019-03-27T21:54:46.481Z,62.57
2019-03-27T21:56:52.127Z,62.21
2019-03-27T21:58:58.037Z,64.48
2019-03-27T22:01:03.721Z,64.53
2019-03-27T22:03:09.471Z,64.84
2019-03-27T22:05:15.142Z,64.85
2019-03-27T22:07:20.824Z,65.98
2019-03-27T22:09:26.481Z,65.58
2019-03-27T22:11:32.121Z,66.65
2019-03-27T22:13:37.810Z,67.33
2019-03-27T22:15:43.645Z,67.36
2019-03-27T22:17:49.308Z,68.56
2019-03-27T22:19:54.978Z,68.92
2019-03-27T22:22:00.624Z,69.97
2019-03-27T22:24:06.273Z,70.82
2019-03-27T22:26:13.041Z,70.76
2019-03-27T22:28:18.708Z,71.47
2019-03-27T22:30:25.553Z,71.61
2019-03-27T22:32:31.297Z,72.75
2019-03-27T22:34:36.984Z,73.42
2019-03-27T22:36:42.624Z,73.98
2019-03-27T22:38:48.301Z,73.67
2019-03-27T22:40:53.953Z,73.92
2019-03-27T22:42:59.600Z,74.85
2019-03-27T22:45:06.083Z,75.36
2019-03-27T22:47:11.728Z,75.83
2019-03-27T22:49:17.385Z,76.11
2019-03-27T22:51:23.182Z,76.75
2019-03-27T22:53:28.795Z,76.89
2019-03-27T22:55:34.503Z,77.29
2019-03-27T22:57:40.186Z,77.29
2019-03-27T22:59:45.827Z,77.51
2019-03-27T23:01:51.540Z,77.79
2019-03-27T23:03:57.276Z,77.64
2019-03-27T23:06:02.990Z,77.60
2019-03-27T23:08:08.635Z,77.38
2019-03-27T23:10:14.313Z,77.60
2019-03-27T23:12:19.959Z,77.51
2019-03-27T23:14:25.609Z,77.67
2019-03-27T23:16:32.509Z,77.52
2019-03-27T23:18:38.230Z,77.57
2019-03-27T23:20:43.877Z,77.66
2019-03-27T23:22:49.552Z,77.54
2019-03-27T23:24:55.200Z,77.47
2019-03-27T23:27:00.847Z,77.64
2019-03-27T23:29:06.516Z,77.62
2019-03-27T23:31:12.160Z,77.94
2019-03-27T23:33:20.245Z,77.85
2019-03-27T23:35:25.193Z,77.49
2019-03-27T23:37:30.904Z,77.39
2019-03-27T23:39:36.558Z,77.22
2019-03-27T23:41:42.248Z,77.38
2019-03-27T23:43:47.887Z,77.29
2019-03-27T23:45:54.046Z,77.73
2019-03-27T23:47:59.859Z,77.86
2019-03-27T23:50:09.891Z,77.52
2019-03-27T23:52:15.536Z,77.87
2019-03-27T23:54:21.204Z,77.89
2019-03-27T23:56:26.860Z,77.92
2019-03-27T23:58:32.498Z,78.14
